DAL2986 KLAX-KSFO
Flight info
| Callsign | DAL2986 |
|---|---|
| Flight time | N/A |
| Altitude | 34000 |
| Route | SUMMR2 STOKD SERFR SERFR4 |
| Aircraft | B764/H-SDE3FGHIM3RWXY/LB1 |
Departure
| Time | 2026-04-21 03:36 |
|---|---|
| Airport | Los Angeles International Airport (KLAX) |
Arrival
| Time | N/A |
|---|---|
| Airport | San Francisco International Airport (KSFO) |
| Time | Latitude | Longitude | Altitude | Speed | Heading |
|---|---|---|---|---|---|
| 2026-04-21 03:05 | 33.94707 | -118.40827 | 132 ft | 0 kts | 148° |
| 2026-04-21 03:26 | 33.94713 | -118.40832 | 132 ft | 2 kts | 144° |
| 2026-04-21 03:26 | 33.94724 | -118.40842 | 132 ft | 2 kts | 133° |
| 2026-04-21 03:26 | 33.94733 | -118.40856 | 132 ft | 1 kts | 124° |
| 2026-04-21 03:27 | 33.94740 | -118.40871 | 132 ft | 2 kts | 115° |
| 2026-04-21 03:27 | 33.94746 | -118.40887 | 132 ft | 2 kts | 105° |
| 2026-04-21 03:27 | 33.94748 | -118.40906 | 132 ft | 2 kts | 96° |
| 2026-04-21 03:27 | 33.94749 | -118.40923 | 133 ft | 2 kts | 86° |
| 2026-04-21 03:28 | 33.94746 | -118.40942 | 133 ft | 2 kts | 81° |
| 2026-04-21 03:28 | 33.94745 | -118.40955 | 133 ft | 0 kts | 81° |
| 2026-04-21 03:28 | 33.94745 | -118.40956 | 133 ft | 0 kts | 81° |
| 2026-04-21 03:30 | 33.94745 | -118.40955 | 133 ft | 0 kts | 81° |
| 2026-04-21 03:30 | 33.94749 | -118.40938 | 133 ft | 5 kts | 70° |
| 2026-04-21 03:31 | 33.94793 | -118.40894 | 132 ft | 11 kts | 17° |
| 2026-04-21 03:31 | 33.94845 | -118.40819 | 132 ft | 14 kts | 78° |
| 2026-04-21 03:31 | 33.94858 | -118.40713 | 131 ft | 15 kts | 83° |
| 2026-04-21 03:31 | 33.94872 | -118.40583 | 130 ft | 15 kts | 83° |
| 2026-04-21 03:32 | 33.94885 | -118.40443 | 129 ft | 18 kts | 84° |
| 2026-04-21 03:32 | 33.94899 | -118.40283 | 127 ft | 19 kts | 84° |
| 2026-04-21 03:32 | 33.94913 | -118.40122 | 126 ft | 19 kts | 83° |
| 2026-04-21 03:32 | 33.94926 | -118.40007 | 124 ft | 11 kts | 83° |
| 2026-04-21 03:33 | 33.94939 | -118.39950 | 122 ft | 0 kts | 59° |
| 2026-04-21 03:34 | 33.94948 | -118.39937 | 122 ft | 3 kts | 47° |
| 2026-04-21 03:34 | 33.94978 | -118.39919 | 121 ft | 7 kts | 12° |
| 2026-04-21 03:34 | 33.95028 | -118.39925 | 121 ft | 3 kts | 340° |
| 2026-04-21 03:34 | 33.95037 | -118.39938 | 121 ft | 1 kts | 290° |
| 2026-04-21 03:35 | 33.95038 | -118.39944 | 121 ft | 1 kts | 277° |
| 2026-04-21 03:35 | 33.95037 | -118.39957 | 121 ft | 1 kts | 265° |
| 2026-04-21 03:35 | 33.95033 | -118.40004 | 121 ft | 14 kts | 264° |
| 2026-04-21 03:35 | 33.95001 | -118.40335 | 126 ft | 66 kts | 264° |
| 2026-04-21 03:36 | 33.94926 | -118.41084 | 132 ft | 114 kts | 263° |
| 2026-04-21 03:36 | 33.94804 | -118.42233 | 129 ft | 158 kts | 264° |
| 2026-04-21 03:36 | 33.94672 | -118.43616 | 484 ft | 172 kts | 262° |
| 2026-04-21 03:36 | 33.94530 | -118.45051 | 1076 ft | 175 kts | 263° |
| 2026-04-21 03:37 | 33.94412 | -118.46480 | 1633 ft | 175 kts | 263° |
| 2026-04-21 03:37 | 33.94301 | -118.47997 | 1909 ft | 192 kts | 265° |
| 2026-04-21 03:37 | 33.94231 | -118.49659 | 2279 ft | 205 kts | 268° |
| 2026-04-21 03:37 | 33.94153 | -118.51519 | 2330 ft | 240 kts | 264° |
| 2026-04-21 03:38 | 33.93993 | -118.53623 | 2744 ft | 260 kts | 264° |
| 2026-04-21 03:38 | 33.93831 | -118.55786 | 3599 ft | 262 kts | 264° |
| 2026-04-21 03:38 | 33.93664 | -118.57963 | 4419 ft | 265 kts | 264° |
| 2026-04-21 03:38 | 33.93492 | -118.60175 | 5252 ft | 268 kts | 264° |
| 2026-04-21 03:39 | 33.93318 | -118.62417 | 6069 ft | 271 kts | 263° |
| 2026-04-21 03:39 | 33.93142 | -118.64693 | 6891 ft | 274 kts | 263° |
| 2026-04-21 03:39 | 33.92965 | -118.66984 | 7708 ft | 277 kts | 262° |
| 2026-04-21 03:39 | 33.92788 | -118.69258 | 8476 ft | 280 kts | 262° |
| 2026-04-21 03:40 | 33.92607 | -118.71597 | 9270 ft | 283 kts | 261° |
| 2026-04-21 03:40 | 33.92421 | -118.73968 | 10008 ft | 288 kts | 261° |
| 2026-04-21 03:40 | 33.92230 | -118.76402 | 10513 ft | 296 kts | 261° |
| 2026-04-21 03:40 | 33.92030 | -118.78939 | 11048 ft | 310 kts | 261° |
| 2026-04-21 03:41 | 33.91821 | -118.81597 | 11577 ft | 325 kts | 261° |
| 2026-04-21 03:41 | 33.91726 | -118.84382 | 12003 ft | 346 kts | 269° |
| 2026-04-21 03:41 | 33.91828 | -118.87425 | 11999 ft | 379 kts | 269° |
| 2026-04-21 03:41 | 33.91920 | -118.90575 | 13137 ft | 378 kts | 269° |
| 2026-04-21 03:42 | 33.92012 | -118.93601 | 14908 ft | 355 kts | 268° |
| 2026-04-21 03:42 | 33.92097 | -118.96560 | 15803 ft | 358 kts | 267° |
| 2026-04-21 03:42 | 33.92210 | -118.99531 | 16597 ft | 363 kts | 271° |
| 2026-04-21 03:42 | 33.92838 | -119.02522 | 17358 ft | 377 kts | 288° |
| 2026-04-21 03:43 | 33.94127 | -119.05304 | 18159 ft | 386 kts | 297° |
| 2026-04-21 03:43 | 33.95553 | -119.08051 | 18881 ft | 391 kts | 296° |
| 2026-04-21 03:43 | 33.96988 | -119.10832 | 19751 ft | 394 kts | 297° |
| 2026-04-21 03:43 | 33.98427 | -119.13631 | 20508 ft | 398 kts | 297° |
| 2026-04-21 03:44 | 33.99893 | -119.16457 | 21283 ft | 401 kts | 299° |
| 2026-04-21 03:44 | 34.01689 | -119.19088 | 21951 ft | 413 kts | 312° |
| 2026-04-21 03:44 | 34.03959 | -119.21320 | 22650 ft | 421 kts | 322° |
| 2026-04-21 03:44 | 34.06359 | -119.23297 | 23322 ft | 424 kts | 321° |
| 2026-04-21 03:45 | 34.08787 | -119.25357 | 24042 ft | 425 kts | 321° |
| 2026-04-21 03:45 | 34.11195 | -119.27408 | 24626 ft | 429 kts | 320° |
| 2026-04-21 03:45 | 34.13662 | -119.29519 | 25277 ft | 431 kts | 320° |
| 2026-04-21 03:45 | 34.16100 | -119.31612 | 25858 ft | 434 kts | 320° |
| 2026-04-21 03:46 | 34.18560 | -119.33730 | 26359 ft | 438 kts | 320° |
| 2026-04-21 03:46 | 34.20991 | -119.35825 | 26943 ft | 439 kts | 320° |
| 2026-04-21 03:46 | 34.23493 | -119.37982 | 27455 ft | 442 kts | 320° |
| 2026-04-21 03:46 | 34.25998 | -119.40146 | 27940 ft | 444 kts | 320° |
| 2026-04-21 03:47 | 34.28533 | -119.42336 | 28428 ft | 446 kts | 320° |
| 2026-04-21 03:47 | 34.31048 | -119.44511 | 28868 ft | 449 kts | 320° |
| 2026-04-21 03:47 | 34.33617 | -119.46736 | 29285 ft | 451 kts | 320° |
| 2026-04-21 03:47 | 34.36173 | -119.48949 | 29734 ft | 453 kts | 320° |
| 2026-04-21 03:48 | 34.37420 | -119.50030 | 29900 ft | 454 kts | 320° |
| 2026-04-21 03:48 | 34.40133 | -119.52411 | 30260 ft | 456 kts | 317° |
| 2026-04-21 03:48 | 34.42493 | -119.55016 | 30670 ft | 452 kts | 310° |
| 2026-04-21 03:48 | 34.44694 | -119.57687 | 31161 ft | 452 kts | 310° |
| 2026-04-21 03:49 | 34.46907 | -119.60382 | 31572 ft | 453 kts | 310° |
| 2026-04-21 03:49 | 34.49104 | -119.63066 | 32089 ft | 451 kts | 310° |
| 2026-04-21 03:49 | 34.51321 | -119.65786 | 32566 ft | 449 kts | 309° |
| 2026-04-21 03:49 | 34.53505 | -119.68469 | 33113 ft | 447 kts | 309° |
| 2026-04-21 03:50 | 34.54829 | -119.70100 | 33375 ft | 446 kts | 309° |
| 2026-04-21 03:50 | 34.57000 | -119.72774 | 33951 ft | 441 kts | 309° |
| 2026-04-21 03:50 | 34.61343 | -119.78138 | 34024 ft | 445 kts | 309° |
| 2026-04-21 03:51 | 34.65651 | -119.83465 | 34017 ft | 441 kts | 309° |
| 2026-04-21 03:51 | 34.68257 | -119.86693 | 34013 ft | 440 kts | 309° |
| 2026-04-21 03:52 | 34.72392 | -119.91821 | 34015 ft | 441 kts | 309° |
| 2026-04-21 03:52 | 34.76822 | -119.97321 | 34019 ft | 440 kts | 309° |
| 2026-04-21 03:53 | 34.81070 | -120.02605 | 34027 ft | 440 kts | 309° |
| 2026-04-21 03:53 | 34.85352 | -120.07938 | 34017 ft | 440 kts | 309° |
| 2026-04-21 03:54 | 34.89617 | -120.13261 | 34016 ft | 439 kts | 308° |
| 2026-04-21 03:54 | 34.93906 | -120.18622 | 34029 ft | 442 kts | 308° |
| 2026-04-21 03:55 | 34.98193 | -120.23988 | 34010 ft | 443 kts | 308° |
| 2026-04-21 03:55 | 35.02483 | -120.29366 | 34010 ft | 441 kts | 308° |
| 2026-04-21 03:56 | 35.06745 | -120.34716 | 34016 ft | 440 kts | 308° |
| 2026-04-21 03:56 | 35.11147 | -120.39947 | 34009 ft | 444 kts | 312° |
| 2026-04-21 03:57 | 35.15718 | -120.45044 | 34003 ft | 444 kts | 311° |
| 2026-04-21 03:57 | 35.20269 | -120.50143 | 34004 ft | 447 kts | 311° |
| 2026-04-21 03:58 | 35.24628 | -120.55034 | 34000 ft | 447 kts | 311° |
| 2026-04-21 03:58 | 35.29198 | -120.60172 | 33999 ft | 446 kts | 311° |
| 2026-04-21 03:59 | 35.33730 | -120.65277 | 33989 ft | 446 kts | 310° |
| 2026-04-21 04:00 | 35.40592 | -120.73023 | 34005 ft | 446 kts | 310° |
| 2026-04-21 04:00 | 35.42974 | -120.75716 | 33997 ft | 445 kts | 310° |
| 2026-04-21 04:01 | 35.47536 | -120.80874 | 33996 ft | 448 kts | 311° |
| 2026-04-21 04:01 | 35.52486 | -120.85608 | 33993 ft | 453 kts | 315° |
| 2026-04-21 04:02 | 35.57508 | -120.90284 | 33980 ft | 453 kts | 316° |
| 2026-04-21 04:02 | 35.62511 | -120.94936 | 33982 ft | 452 kts | 315° |
| 2026-04-21 04:03 | 35.67566 | -120.99645 | 33978 ft | 456 kts | 315° |
| 2026-04-21 04:03 | 35.70860 | -121.02713 | 33978 ft | 454 kts | 315° |